Bookmark and Share
Track history (hours):
 

Arklow Rogue

Last reported at 2014-Apr-16 07:32 UTC. Time now 2014-Apr-18 08:16 UTC.
Position N 54°04' W 006°12'.

Length 90 m; draft 3.4 m.

Type: Cargo ship. MMSI: 250000960.

NotesDate/timePositionNaut miles runAvg speedWind from/ knotsBaromVisibWave heightAir tempDewpointWater temp
2014-Apr-16 07:32N 54°04' W 006°12'1212.1
2014-Apr-16 06:33N 53°55' W 005°60'4212.4
2014-Apr-16 03:10N 53°14' W 005°41'910.9
2014-Apr-16 02:22N 53°06' W 005°38'10 9.5
2014-Apr-16 01:18N 52°56' W 005°39'1010.8
2014-Apr-16 00:22N 52°46' W 005°44'1212.5
2014-Apr-15 23:22N 52°34' W 005°49'1413.9
2014-Apr-15 22:22N 52°20' W 005°55'2912.8
2014-Apr-15 20:05N 52°02' W 006°32'814.3
2014-Apr-15 19:33N 52°02' W 006°45'1110.8
2014-Apr-15 18:34N 52°10' W 006°58'7 6.8
2014-Apr-15 17:33N 52°16' W 007°02'0 0.0
2014-Apr-15 16:33N 52°16' W 007°02'0 0.0
2014-Apr-15 15:33N 52°16' W 007°02'0 0.0
2014-Apr-15 14:33N 52°16' W 007°02'0 0.0
2014-Apr-15 12:34N 52°16' W 007°02'0 0.0
2014-Apr-15 11:34N 52°16' W 007°02'0 0.0
2014-Apr-15 10:34N 52°16' W 007°02'0 0.0
2014-Apr-15 09:31N 52°16' W 007°02'0 0.0
2014-Apr-15 08:34N 52°16' W 007°02'0 0.0
2014-Apr-15 07:34N 52°16' W 007°02'0 0.0
2014-Apr-15 06:34N 52°16' W 007°02'0 0.0
2014-Apr-15 03:34N 52°16' W 007°02'0 0.0
2014-Apr-15 02:34N 52°16' W 007°02'0 0.0
2014-Apr-15 01:34N 52°16' W 007°02'0 0.0
2014-Apr-15 00:34N 52°16' W 007°02'0 0.0
2014-Apr-14 23:34N 52°16' W 007°02'0 0.0
2014-Apr-14 22:34N 52°16' W 007°02'0 0.0
2014-Apr-14 21:34N 52°16' W 007°02'0 0.0
2014-Apr-14 19:34N 52°16' W 007°02'0 0.0
2014-Apr-14 18:34N 52°16' W 007°02'1 0.6
2014-Apr-14 17:34N 52°16' W 007°01'5 4.9
2014-Apr-14 16:34N 52°12' W 006°56'4 3.7
2014-Apr-14 15:34N 52°09' W 006°58'0 0.3
2014-Apr-14 14:32N 52°09' W 006°58'0 0.0
2014-Apr-14 13:32N 52°09' W 006°58'0 0.0
2014-Apr-14 11:32N 52°09' W 006°59'0 0.1
2014-Apr-14 10:32N 52°09' W 006°59'0 0.0
2014-Apr-14 09:32N 52°09' W 006°59'0 0.0
2014-Apr-14 08:32N 52°09' W 006°59'0 0.0
2014-Apr-14 07:32N 52°09' W 006°59'0 0.0
2014-Apr-14 05:29N 52°09' W 006°58'16 2.4
2014-Apr-13 22:34N 51°53' W 006°56'1110.7
2014-Apr-13 21:33N 51°42' W 006°54'  
2014-Apr-11 17:22N 43°37' W 001°36'7 8.9
2014-Apr-11 16:33N 43°32' W 001°30'0 0.1
2014-Apr-11 11:23N 43°32' W 001°30'0 0.0
2014-Apr-11 07:33N 43°32' W 001°30'6 6.2
2014-Apr-11 06:33N 43°32' W 001°38'  

Dump ship's entire track history

sailing weather and tide predictions

Arklow Rogue — EIGD — position and weather